sensor_id;sensor_type;location;lat;lon;timestamp;temperature;humidity
7117;DHT22;3600;48.568;7.870;2024-03-17T00:00:32;8.30;99.90
7117;DHT22;3600;48.568;7.870;2024-03-17T00:02:58;8.30;99.90
7117;DHT22;3600;48.568;7.870;2024-03-17T00:05:24;8.10;99.90
7117;DHT22;3600;48.568;7.870;2024-03-17T00:07:50;8.30;99.90
7117;DHT22;3600;48.568;7.870;2024-03-17T00:10:16;8.50;99.90
7117;DHT22;3600;48.568;7.870;2024-03-17T00:12:42;8.20;99.90
7117;DHT22;3600;48.568;7.870;2024-03-17T00:15:08;8.10;99.90
7117;DHT22;3600;48.568;7.870;2024-03-17T00:17:34;8.00;99.90
7117;DHT22;3600;48.568;7.870;2024-03-17T00:20:01;8.00;99.90
7117;DHT22;3600;48.568;7.870;2024-03-17T00:22:35;8.00;99.90
7117;DHT22;3600;48.568;7.870;2024-03-17T00:25:03;8.00;99.90
7117;DHT22;3600;48.568;7.870;2024-03-17T00:27:29;7.90;99.90
7117;DHT22;3600;48.568;7.870;2024-03-17T00:29:55;8.10;99.90
7117;DHT22;3600;48.568;7.870;2024-03-17T00:32:20;8.30;99.90
7117;DHT22;3600;48.568;7.870;2024-03-17T00:34:48;8.40;99.90
7117;DHT22;3600;48.568;7.870;2024-03-17T00:37:13;8.30;99.90
7117;DHT22;3600;48.568;7.870;2024-03-17T00:39:39;8.40;99.90
7117;DHT22;3600;48.568;7.870;2024-03-17T00:42:05;8.10;99.90
7117;DHT22;3600;48.568;7.870;2024-03-17T00:44:32;8.00;99.90
7117;DHT22;3600;48.568;7.870;2024-03-17T00:46:58;7.90;99.90
7117;DHT22;3600;48.568;7.870;2024-03-17T00:49:24;7.90;99.90
7117;DHT22;3600;48.568;7.870;2024-03-17T00:51:50;7.90;99.90
7117;DHT22;3600;48.568;7.870;2024-03-17T00:54:16;7.80;99.90
7117;DHT22;3600;48.568;7.870;2024-03-17T00:56:43;7.80;99.90
7117;DHT22;3600;48.568;7.870;2024-03-17T00:59:09;7.90;99.90
7117;DHT22;3600;48.568;7.870;2024-03-17T01:01:35;7.80;99.90
7117;DHT22;3600;48.568;7.870;2024-03-17T01:04:01;7.80;99.90
7117;DHT22;3600;48.568;7.870;2024-03-17T01:06:27;7.80;99.90
7117;DHT22;3600;48.568;7.870;2024-03-17T01:08:52;7.80;99.90
7117;DHT22;3600;48.568;7.870;2024-03-17T01:11:18;7.80;99.90
7117;DHT22;3600;48.568;7.870;2024-03-17T01:13:45;7.80;99.90
7117;DHT22;3600;48.568;7.870;2024-03-17T01:16:15;7.80;99.90
7117;DHT22;3600;48.568;7.870;2024-03-17T01:18:41;7.70;99.90
7117;DHT22;3600;48.568;7.870;2024-03-17T01:21:09;7.60;99.90
7117;DHT22;3600;48.568;7.870;2024-03-17T01:23:35;7.60;99.90
7117;DHT22;3600;48.568;7.870;2024-03-17T01:26:01;7.70;99.90
7117;DHT22;3600;48.568;7.870;2024-03-17T01:28:26;8.00;99.90
7117;DHT22;3600;48.568;7.870;2024-03-17T01:30:52;8.10;99.90
7117;DHT22;3600;48.568;7.870;2024-03-17T01:33:18;7.90;99.90
7117;DHT22;3600;48.568;7.870;2024-03-17T01:35:44;7.90;99.90
7117;DHT22;3600;48.568;7.870;2024-03-17T01:38:10;7.80;99.90
7117;DHT22;3600;48.568;7.870;2024-03-17T01:40:36;7.80;99.90
7117;DHT22;3600;48.568;7.870;2024-03-17T01:43:02;7.80;99.90
7117;DHT22;3600;48.568;7.870;2024-03-17T01:45:29;7.70;99.90
7117;DHT22;3600;48.568;7.870;2024-03-17T01:47:57;7.90;99.90
7117;DHT22;3600;48.568;7.870;2024-03-17T01:50:27;8.10;99.90
7117;DHT22;3600;48.568;7.870;2024-03-17T01:52:57;8.30;99.90
7117;DHT22;3600;48.568;7.870;2024-03-17T01:55:26;8.20;99.90
7117;DHT22;3600;48.568;7.870;2024-03-17T01:57:53;8.00;99.90
7117;DHT22;3600;48.568;7.870;2024-03-17T02:00:20;8.00;99.90
7117;DHT22;3600;48.568;7.870;2024-03-17T02:02:46;8.00;99.90
7117;DHT22;3600;48.568;7.870;2024-03-17T02:05:11;7.80;99.90
7117;DHT22;3600;48.568;7.870;2024-03-17T02:07:37;7.90;99.90
7117;DHT22;3600;48.568;7.870;2024-03-17T02:10:03;7.80;99.90
7117;DHT22;3600;48.568;7.870;2024-03-17T02:12:31;7.70;99.90
7117;DHT22;3600;48.568;7.870;2024-03-17T02:15:01;7.60;99.90
7117;DHT22;3600;48.568;7.870;2024-03-17T02:17:31;7.60;99.90
7117;DHT22;3600;48.568;7.870;2024-03-17T02:19:57;7.50;99.90
7117;DHT22;3600;48.568;7.870;2024-03-17T02:22:24;7.40;99.90
7117;DHT22;3600;48.568;7.870;2024-03-17T02:24:50;7.50;99.90
7117;DHT22;3600;48.568;7.870;2024-03-17T02:27:16;7.40;99.90
7117;DHT22;3600;48.568;7.870;2024-03-17T02:29:42;7.40;99.90
7117;DHT22;3600;48.568;7.870;2024-03-17T02:32:09;7.40;99.90
7117;DHT22;3600;48.568;7.870;2024-03-17T02:34:36;7.50;99.90
7117;DHT22;3600;48.568;7.870;2024-03-17T02:37:03;7.40;99.90
7117;DHT22;3600;48.568;7.870;2024-03-17T02:39:31;7.40;99.90
7117;DHT22;3600;48.568;7.870;2024-03-17T02:42:07;7.40;99.90
7117;DHT22;3600;48.568;7.870;2024-03-17T02:44:34;7.50;99.90
7117;DHT22;3600;48.568;7.870;2024-03-17T02:47:02;7.40;99.90
7117;DHT22;3600;48.568;7.870;2024-03-17T02:49:30;7.40;99.90
7117;DHT22;3600;48.568;7.870;2024-03-17T02:52:03;7.40;99.90
7117;DHT22;3600;48.568;7.870;2024-03-17T02:54:30;7.40;99.90
7117;DHT22;3600;48.568;7.870;2024-03-17T02:56:56;7.20;99.90
7117;DHT22;3600;48.568;7.870;2024-03-17T02:59:22;7.20;99.90
7117;DHT22;3600;48.568;7.870;2024-03-17T03:01:54;7.40;99.90
7117;DHT22;3600;48.568;7.870;2024-03-17T03:04:21;7.40;99.90
7117;DHT22;3600;48.568;7.870;2024-03-17T03:06:47;7.30;99.90
7117;DHT22;3600;48.568;7.870;2024-03-17T03:09:13;7.40;99.90
7117;DHT22;3600;48.568;7.870;2024-03-17T03:11:40;7.40;99.90
7117;DHT22;3600;48.568;7.870;2024-03-17T03:14:07;7.60;99.90
7117;DHT22;3600;48.568;7.870;2024-03-17T03:16:33;7.50;99.90
7117;DHT22;3600;48.568;7.870;2024-03-17T03:19:00;7.50;99.90
7117;DHT22;3600;48.568;7.870;2024-03-17T03:21:26;7.40;99.90
7117;DHT22;3600;48.568;7.870;2024-03-17T03:23:52;7.40;99.90
7117;DHT22;3600;48.568;7.870;2024-03-17T03:26:18;7.20;99.90
7117;DHT22;3600;48.568;7.870;2024-03-17T03:28:44;7.20;99.90
7117;DHT22;3600;48.568;7.870;2024-03-17T03:31:13;7.10;99.90
7117;DHT22;3600;48.568;7.870;2024-03-17T03:33:42;7.10;99.90
7117;DHT22;3600;48.568;7.870;2024-03-17T03:36:10;7.20;99.90
7117;DHT22;3600;48.568;7.870;2024-03-17T03:38:36;7.20;99.90
7117;DHT22;3600;48.568;7.870;2024-03-17T03:41:10;7.10;99.90
7117;DHT22;3600;48.568;7.870;2024-03-17T03:43:37;7.00;99.90
7117;DHT22;3600;48.568;7.870;2024-03-17T03:46:03;6.90;99.90
7117;DHT22;3600;48.568;7.870;2024-03-17T03:48:30;6.80;99.90
7117;DHT22;3600;48.568;7.870;2024-03-17T03:50:56;6.90;99.90
7117;DHT22;3600;48.568;7.870;2024-03-17T03:53:22;6.90;99.90
7117;DHT22;3600;48.568;7.870;2024-03-17T03:55:48;6.80;99.90
7117;DHT22;3600;48.568;7.870;2024-03-17T03:58:15;6.70;99.90
7117;DHT22;3600;48.568;7.870;2024-03-17T04:00:41;6.80;99.90
7117;DHT22;3600;48.568;7.870;2024-03-17T04:03:07;6.80;99.90
7117;DHT22;3600;48.568;7.870;2024-03-17T04:05:33;6.80;99.90
7117;DHT22;3600;48.568;7.870;2024-03-17T04:08:00;6.80;99.90
7117;DHT22;3600;48.568;7.870;2024-03-17T04:10:26;6.80;99.90
7117;DHT22;3600;48.568;7.870;2024-03-17T04:12:53;6.70;99.90
7117;DHT22;3600;48.568;7.870;2024-03-17T04:15:19;6.60;99.90
7117;DHT22;3600;48.568;7.870;2024-03-17T04:17:45;6.50;99.90
7117;DHT22;3600;48.568;7.870;2024-03-17T04:20:11;6.40;99.90
7117;DHT22;3600;48.568;7.870;2024-03-17T04:22:41;6.50;99.90
7117;DHT22;3600;48.568;7.870;2024-03-17T04:25:09;6.40;99.90
7117;DHT22;3600;48.568;7.870;2024-03-17T04:27:35;6.40;99.90
7117;DHT22;3600;48.568;7.870;2024-03-17T04:30:02;6.40;99.90
7117;DHT22;3600;48.568;7.870;2024-03-17T04:32:31;6.40;99.90
7117;DHT22;3600;48.568;7.870;2024-03-17T04:34:57;6.40;99.90
7117;DHT22;3600;48.568;7.870;2024-03-17T04:37:23;6.40;99.90
7117;DHT22;3600;48.568;7.870;2024-03-17T04:39:50;6.60;99.90
7117;DHT22;3600;48.568;7.870;2024-03-17T04:42:17;6.80;99.90
7117;DHT22;3600;48.568;7.870;2024-03-17T04:44:44;6.60;99.90
7117;DHT22;3600;48.568;7.870;2024-03-17T04:47:10;6.60;99.90
7117;DHT22;3600;48.568;7.870;2024-03-17T04:49:40;6.70;99.90
7117;DHT22;3600;48.568;7.870;2024-03-17T04:52:07;6.70;99.90
7117;DHT22;3600;48.568;7.870;2024-03-17T04:54:35;6.70;99.90
7117;DHT22;3600;48.568;7.870;2024-03-17T04:57:02;6.70;99.90
7117;DHT22;3600;48.568;7.870;2024-03-17T04:59:28;6.80;99.90
7117;DHT22;3600;48.568;7.870;2024-03-17T05:01:54;6.70;99.90
7117;DHT22;3600;48.568;7.870;2024-03-17T05:04:20;6.50;99.90
7117;DHT22;3600;48.568;7.870;2024-03-17T05:06:48;6.30;99.90
7117;DHT22;3600;48.568;7.870;2024-03-17T05:09:16;6.20;99.90
7117;DHT22;3600;48.568;7.870;2024-03-17T05:11:42;6.20;99.90
7117;DHT22;3600;48.568;7.870;2024-03-17T05:14:09;6.20;99.90
7117;DHT22;3600;48.568;7.870;2024-03-17T05:16:35;6.40;99.90
7117;DHT22;3600;48.568;7.870;2024-03-17T05:19:01;6.60;99.90
7117;DHT22;3600;48.568;7.870;2024-03-17T05:21:27;6.30;99.90
7117;DHT22;3600;48.568;7.870;2024-03-17T05:23:57;6.30;99.90
7117;DHT22;3600;48.568;7.870;2024-03-17T05:26:24;6.20;99.90
7117;DHT22;3600;48.568;7.870;2024-03-17T05:28:51;6.30;99.90
7117;DHT22;3600;48.568;7.870;2024-03-17T05:31:17;6.30;99.90
7117;DHT22;3600;48.568;7.870;2024-03-17T05:33:44;6.20;99.90
7117;DHT22;3600;48.568;7.870;2024-03-17T05:36:10;6.00;99.90
7117;DHT22;3600;48.568;7.870;2024-03-17T05:38:36;6.00;99.90
7117;DHT22;3600;48.568;7.870;2024-03-17T05:41:04;6.10;99.90
7117;DHT22;3600;48.568;7.870;2024-03-17T05:43:32;6.40;99.90
7117;DHT22;3600;48.568;7.870;2024-03-17T05:46:00;6.20;99.90
7117;DHT22;3600;48.568;7.870;2024-03-17T05:48:29;6.00;99.90
7117;DHT22;3600;48.568;7.870;2024-03-17T05:50:56;6.00;99.90
7117;DHT22;3600;48.568;7.870;2024-03-17T05:53:23;6.10;99.90
7117;DHT22;3600;48.568;7.870;2024-03-17T05:55:52;6.00;99.90
7117;DHT22;3600;48.568;7.870;2024-03-17T05:58:18;5.90;99.90
7117;DHT22;3600;48.568;7.870;2024-03-17T06:00:47;5.80;99.90
7117;DHT22;3600;48.568;7.870;2024-03-17T06:03:12;5.90;99.90
7117;DHT22;3600;48.568;7.870;2024-03-17T06:05:40;5.80;99.90
7117;DHT22;3600;48.568;7.870;2024-03-17T06:08:13;5.80;99.90
7117;DHT22;3600;48.568;7.870;2024-03-17T06:10:47;5.90;99.90
7117;DHT22;3600;48.568;7.870;2024-03-17T06:13:13;5.80;99.90
7117;DHT22;3600;48.568;7.870;2024-03-17T06:15:43;5.90;99.90
7117;DHT22;3600;48.568;7.870;2024-03-17T06:18:12;5.90;99.90
7117;DHT22;3600;48.568;7.870;2024-03-17T06:20:44;5.80;99.90
7117;DHT22;3600;48.568;7.870;2024-03-17T06:23:11;5.80;99.90
7117;DHT22;3600;48.568;7.870;2024-03-17T06:25:49;5.80;99.90
7117;DHT22;3600;48.568;7.870;2024-03-17T06:28:17;5.90;99.90
7117;DHT22;3600;48.568;7.870;2024-03-17T06:30:44;5.90;99.90
7117;DHT22;3600;48.568;7.870;2024-03-17T06:33:15;6.10;99.90
7117;DHT22;3600;48.568;7.870;2024-03-17T06:35:42;6.20;99.90
7117;DHT22;3600;48.568;7.870;2024-03-17T06:38:08;6.10;99.90
7117;DHT22;3600;48.568;7.870;2024-03-17T06:40:38;6.10;99.90
7117;DHT22;3600;48.568;7.870;2024-03-17T06:43:05;6.00;99.90
7117;DHT22;3600;48.568;7.870;2024-03-17T06:45:32;5.90;99.90
7117;DHT22;3600;48.568;7.870;2024-03-17T06:47:58;6.20;99.90
7117;DHT22;3600;48.568;7.870;2024-03-17T06:50:24;6.10;99.90
7117;DHT22;3600;48.568;7.870;2024-03-17T06:52:50;6.10;99.90
7117;DHT22;3600;48.568;7.870;2024-03-17T06:55:18;6.20;99.90
7117;DHT22;3600;48.568;7.870;2024-03-17T06:57:47;6.20;99.90
7117;DHT22;3600;48.568;7.870;2024-03-17T07:00:14;6.10;99.90
7117;DHT22;3600;48.568;7.870;2024-03-17T07:02:45;6.20;99.90
7117;DHT22;3600;48.568;7.870;2024-03-17T07:05:14;6.20;99.90
7117;DHT22;3600;48.568;7.870;2024-03-17T07:07:43;6.10;99.90
7117;DHT22;3600;48.568;7.870;2024-03-17T07:10:10;6.20;99.90
7117;DHT22;3600;48.568;7.870;2024-03-17T07:12:41;6.40;99.90
7117;DHT22;3600;48.568;7.870;2024-03-17T07:15:08;6.30;99.90
7117;DHT22;3600;48.568;7.870;2024-03-17T07:17:36;6.30;99.90
7117;DHT22;3600;48.568;7.870;2024-03-17T07:20:02;6.30;99.90
7117;DHT22;3600;48.568;7.870;2024-03-17T07:22:30;6.40;99.90
7117;DHT22;3600;48.568;7.870;2024-03-17T07:24:56;6.40;99.90
7117;DHT22;3600;48.568;7.870;2024-03-17T07:27:27;6.40;99.90
7117;DHT22;3600;48.568;7.870;2024-03-17T07:29:53;6.30;99.90
7117;DHT22;3600;48.568;7.870;2024-03-17T07:32:19;6.40;99.90
7117;DHT22;3600;48.568;7.870;2024-03-17T07:34:45;6.50;99.90
7117;DHT22;3600;48.568;7.870;2024-03-17T07:37:11;6.60;99.90
7117;DHT22;3600;48.568;7.870;2024-03-17T07:39:37;6.80;99.90
7117;DHT22;3600;48.568;7.870;2024-03-17T07:42:31;6.90;99.90
7117;DHT22;3600;48.568;7.870;2024-03-17T07:45:33;7.00;99.90
7117;DHT22;3600;48.568;7.870;2024-03-17T07:47:59;7.20;99.90
7117;DHT22;3600;48.568;7.870;2024-03-17T07:50:25;7.20;99.90
7117;DHT22;3600;48.568;7.870;2024-03-17T07:52:51;7.30;99.90
7117;DHT22;3600;48.568;7.870;2024-03-17T07:55:17;7.50;99.90
7117;DHT22;3600;48.568;7.870;2024-03-17T07:58:13;7.20;99.90
7117;DHT22;3600;48.568;7.870;2024-03-17T08:01:15;7.30;99.90
7117;DHT22;3600;48.568;7.870;2024-03-17T08:04:46;7.50;99.90
7117;DHT22;3600;48.568;7.870;2024-03-17T08:07:46;7.60;99.90
7117;DHT22;3600;48.568;7.870;2024-03-17T08:16:59;7.50;99.90
7117;DHT22;3600;48.568;7.870;2024-03-17T08:23:33;7.70;99.90
7117;DHT22;3600;48.568;7.870;2024-03-17T08:26:06;7.80;99.90
7117;DHT22;3600;48.568;7.870;2024-03-17T08:28:32;7.90;99.90
7117;DHT22;3600;48.568;7.870;2024-03-17T08:31:01;8.00;99.90
7117;DHT22;3600;48.568;7.870;2024-03-17T08:33:28;8.20;99.90
7117;DHT22;3600;48.568;7.870;2024-03-17T08:36:04;8.40;99.90
7117;DHT22;3600;48.568;7.870;2024-03-17T08:38:32;8.60;99.90
7117;DHT22;3600;48.568;7.870;2024-03-17T08:41:03;8.70;99.90
7117;DHT22;3600;48.568;7.870;2024-03-17T08:43:37;8.70;99.90
7117;DHT22;3600;48.568;7.870;2024-03-17T08:46:07;8.80;99.90
7117;DHT22;3600;48.568;7.870;2024-03-17T08:48:35;8.90;99.90
7117;DHT22;3600;48.568;7.870;2024-03-17T08:51:03;8.90;99.90
7117;DHT22;3600;48.568;7.870;2024-03-17T08:53:29;8.90;99.90
7117;DHT22;3600;48.568;7.870;2024-03-17T08:55:56;9.00;99.90
7117;DHT22;3600;48.568;7.870;2024-03-17T08:58:23;9.10;99.90
7117;DHT22;3600;48.568;7.870;2024-03-17T09:00:49;9.10;99.90
7117;DHT22;3600;48.568;7.870;2024-03-17T09:03:18;9.20;99.90
7117;DHT22;3600;48.568;7.870;2024-03-17T09:05:46;9.30;99.90
7117;DHT22;3600;48.568;7.870;2024-03-17T09:08:19;9.50;99.90
7117;DHT22;3600;48.568;7.870;2024-03-17T09:10:49;9.40;99.90
7117;DHT22;3600;48.568;7.870;2024-03-17T09:13:17;9.60;99.90
7117;DHT22;3600;48.568;7.870;2024-03-17T09:15:57;9.70;99.90
7117;DHT22;3600;48.568;7.870;2024-03-17T09:18:24;9.70;99.90
7117;DHT22;3600;48.568;7.870;2024-03-17T09:21:00;9.70;99.90
7117;DHT22;3600;48.568;7.870;2024-03-17T09:23:26;9.80;99.90
7117;DHT22;3600;48.568;7.870;2024-03-17T09:26:00;9.90;99.90
7117;DHT22;3600;48.568;7.870;2024-03-17T09:28:31;10.00;99.90
7117;DHT22;3600;48.568;7.870;2024-03-17T09:30:58;10.00;99.90
7117;DHT22;3600;48.568;7.870;2024-03-17T09:33:28;10.10;99.90
7117;DHT22;3600;48.568;7.870;2024-03-17T09:36:02;10.10;99.90
7117;DHT22;3600;48.568;7.870;2024-03-17T09:38:29;10.20;99.90
7117;DHT22;3600;48.568;7.870;2024-03-17T09:40:56;10.30;99.90
7117;DHT22;3600;48.568;7.870;2024-03-17T09:43:27;10.30;99.90
7117;DHT22;3600;48.568;7.870;2024-03-17T09:45:54;10.40;99.90
7117;DHT22;3600;48.568;7.870;2024-03-17T09:48:24;10.50;99.90
7117;DHT22;3600;48.568;7.870;2024-03-17T09:50:55;10.50;99.90
7117;DHT22;3600;48.568;7.870;2024-03-17T09:53:26;10.60;99.90
7117;DHT22;3600;48.568;7.870;2024-03-17T09:56:00;10.60;99.90
7117;DHT22;3600;48.568;7.870;2024-03-17T09:58:28;10.70;99.90
7117;DHT22;3600;48.568;7.870;2024-03-17T10:00:55;10.80;99.90
7117;DHT22;3600;48.568;7.870;2024-03-17T10:03:51;10.80;99.90
7117;DHT22;3600;48.568;7.870;2024-03-17T10:06:21;11.00;99.90
7117;DHT22;3600;48.568;7.870;2024-03-17T10:08:50;11.10;99.90
7117;DHT22;3600;48.568;7.870;2024-03-17T10:11:20;11.10;99.90
7117;DHT22;3600;48.568;7.870;2024-03-17T10:13:58;11.20;99.90
7117;DHT22;3600;48.568;7.870;2024-03-17T10:16:35;11.20;99.90
7117;DHT22;3600;48.568;7.870;2024-03-17T10:19:16;11.30;99.90
7117;DHT22;3600;48.568;7.870;2024-03-17T10:21:47;11.30;99.90
7117;DHT22;3600;48.568;7.870;2024-03-17T10:24:23;11.20;99.90
7117;DHT22;3600;48.568;7.870;2024-03-17T10:26:58;11.40;99.90
7117;DHT22;3600;48.568;7.870;2024-03-17T10:29:34;11.30;99.90
7117;DHT22;3600;48.568;7.870;2024-03-17T10:32:14;11.40;99.90
7117;DHT22;3600;48.568;7.870;2024-03-17T10:34:44;11.50;99.90
7117;DHT22;3600;48.568;7.870;2024-03-17T10:37:14;11.70;99.90
7117;DHT22;3600;48.568;7.870;2024-03-17T10:39:41;11.80;99.90
7117;DHT22;3600;48.568;7.870;2024-03-17T10:42:09;11.80;99.90
7117;DHT22;3600;48.568;7.870;2024-03-17T10:44:38;11.90;99.90
7117;DHT22;3600;48.568;7.870;2024-03-17T10:47:05;11.90;99.90
7117;DHT22;3600;48.568;7.870;2024-03-17T10:49:37;11.90;99.90
7117;DHT22;3600;48.568;7.870;2024-03-17T10:52:08;11.80;99.90
7117;DHT22;3600;48.568;7.870;2024-03-17T10:54:46;11.90;99.90
7117;DHT22;3600;48.568;7.870;2024-03-17T10:57:31;11.90;99.90
7117;DHT22;3600;48.568;7.870;2024-03-17T11:00:01;11.70;99.90
7117;DHT22;3600;48.568;7.870;2024-03-17T11:02:31;11.90;99.90
7117;DHT22;3600;48.568;7.870;2024-03-17T11:05:07;12.00;99.90
7117;DHT22;3600;48.568;7.870;2024-03-17T11:07:39;12.10;99.90
7117;DHT22;3600;48.568;7.870;2024-03-17T11:12:51;12.10;99.90
7117;DHT22;3600;48.568;7.870;2024-03-17T11:18:27;12.20;99.90
7117;DHT22;3600;48.568;7.870;2024-03-17T11:20:43;12.30;99.90
7117;DHT22;3600;48.568;7.870;2024-03-17T11:23:29;12.40;99.90
7117;DHT22;3600;48.568;7.870;2024-03-17T11:25:55;12.50;99.90
7117;DHT22;3600;48.568;7.870;2024-03-17T11:31:33;12.60;99.90
7117;DHT22;3600;48.568;7.870;2024-03-17T11:33:59;12.70;99.90
7117;DHT22;3600;48.568;7.870;2024-03-17T11:36:38;12.70;99.90
7117;DHT22;3600;48.568;7.870;2024-03-17T11:39:07;12.70;99.90
7117;DHT22;3600;48.568;7.870;2024-03-17T11:41:53;12.70;99.90
7117;DHT22;3600;48.568;7.870;2024-03-17T11:47:02;12.70;99.90
7117;DHT22;3600;48.568;7.870;2024-03-17T11:49:33;12.90;99.90
7117;DHT22;3600;48.568;7.870;2024-03-17T11:52:01;12.80;99.90
7117;DHT22;3600;48.568;7.870;2024-03-17T11:54:38;12.90;99.90
7117;DHT22;3600;48.568;7.870;2024-03-17T11:59:34;13.20;99.90
7117;DHT22;3600;48.568;7.870;2024-03-17T12:02:00;13.20;99.90
7117;DHT22;3600;48.568;7.870;2024-03-17T12:04:28;13.10;99.90
7117;DHT22;3600;48.568;7.870;2024-03-17T12:06:55;13.00;99.90
7117;DHT22;3600;48.568;7.870;2024-03-17T12:12:01;13.20;99.90
7117;DHT22;3600;48.568;7.870;2024-03-17T12:14:28;13.10;99.90
7117;DHT22;3600;48.568;7.870;2024-03-17T12:17:04;13.20;99.90
7117;DHT22;3600;48.568;7.870;2024-03-17T12:19:31;13.10;99.90
7117;DHT22;3600;48.568;7.870;2024-03-17T12:21:57;13.20;99.90
7117;DHT22;3600;48.568;7.870;2024-03-17T12:24:26;13.20;99.90
7117;DHT22;3600;48.568;7.870;2024-03-17T12:26:53;13.20;99.90
7117;DHT22;3600;48.568;7.870;2024-03-17T12:29:27;13.30;99.90
7117;DHT22;3600;48.568;7.870;2024-03-17T12:31:54;13.30;99.90
7117;DHT22;3600;48.568;7.870;2024-03-17T12:34:22;13.40;99.90
7117;DHT22;3600;48.568;7.870;2024-03-17T12:36:50;13.30;99.90
7117;DHT22;3600;48.568;7.870;2024-03-17T12:39:24;13.30;99.90
7117;DHT22;3600;48.568;7.870;2024-03-17T12:42:07;13.30;99.90
7117;DHT22;3600;48.568;7.870;2024-03-17T12:44:37;13.40;99.90
7117;DHT22;3600;48.568;7.870;2024-03-17T12:47:17;13.40;99.90
7117;DHT22;3600;48.568;7.870;2024-03-17T12:49:51;13.50;99.90
7117;DHT22;3600;48.568;7.870;2024-03-17T12:52:31;13.50;99.90
7117;DHT22;3600;48.568;7.870;2024-03-17T12:55:15;13.50;99.90
7117;DHT22;3600;48.568;7.870;2024-03-17T13:01:01;13.40;99.90
7117;DHT22;3600;48.568;7.870;2024-03-17T13:03:32;13.50;99.90
7117;DHT22;3600;48.568;7.870;2024-03-17T13:06:00;13.50;99.90
7117;DHT22;3600;48.568;7.870;2024-03-17T13:08:28;13.50;99.90
7117;DHT22;3600;48.568;7.870;2024-03-17T13:10:55;13.60;99.90
7117;DHT22;3600;48.568;7.870;2024-03-17T13:13:21;13.60;99.90
7117;DHT22;3600;48.568;7.870;2024-03-17T13:15:47;13.70;99.90
7117;DHT22;3600;48.568;7.870;2024-03-17T13:18:17;13.70;99.90
7117;DHT22;3600;48.568;7.870;2024-03-17T13:20:46;13.70;99.90
7117;DHT22;3600;48.568;7.870;2024-03-17T13:23:15;13.70;99.90
7117;DHT22;3600;48.568;7.870;2024-03-17T13:25:47;13.60;99.90
7117;DHT22;3600;48.568;7.870;2024-03-17T13:28:13;13.70;99.90
7117;DHT22;3600;48.568;7.870;2024-03-17T13:30:40;13.70;99.90
7117;DHT22;3600;48.568;7.870;2024-03-17T13:33:07;13.80;99.90
7117;DHT22;3600;48.568;7.870;2024-03-17T13:35:38;13.80;99.90
7117;DHT22;3600;48.568;7.870;2024-03-17T13:38:08;13.90;99.90
7117;DHT22;3600;48.568;7.870;2024-03-17T13:40:38;13.90;99.90
7117;DHT22;3600;48.568;7.870;2024-03-17T13:43:04;13.90;99.90
7117;DHT22;3600;48.568;7.870;2024-03-17T13:45:41;14.00;99.90
7117;DHT22;3600;48.568;7.870;2024-03-17T13:48:08;14.10;99.90
7117;DHT22;3600;48.568;7.870;2024-03-17T13:50:39;14.00;99.90
7117;DHT22;3600;48.568;7.870;2024-03-17T13:53:08;14.00;99.90
7117;DHT22;3600;48.568;7.870;2024-03-17T13:55:34;14.10;99.90
7117;DHT22;3600;48.568;7.870;2024-03-17T13:58:01;14.30;99.90
7117;DHT22;3600;48.568;7.870;2024-03-17T14:00:28;14.40;99.90
7117;DHT22;3600;48.568;7.870;2024-03-17T14:02:56;14.40;99.90
7117;DHT22;3600;48.568;7.870;2024-03-17T14:05:23;14.60;99.90
7117;DHT22;3600;48.568;7.870;2024-03-17T14:07:50;14.60;99.90
7117;DHT22;3600;48.568;7.870;2024-03-17T14:10:18;14.60;99.90
7117;DHT22;3600;48.568;7.870;2024-03-17T14:12:44;14.50;99.90
7117;DHT22;3600;48.568;7.870;2024-03-17T14:15:12;14.50;99.90
7117;DHT22;3600;48.568;7.870;2024-03-17T14:17:42;14.70;99.90
7117;DHT22;3600;48.568;7.870;2024-03-17T14:20:10;14.70;99.90
7117;DHT22;3600;48.568;7.870;2024-03-17T14:22:37;14.70;99.90
7117;DHT22;3600;48.568;7.870;2024-03-17T14:25:05;14.80;99.90
7117;DHT22;3600;48.568;7.870;2024-03-17T14:27:32;14.40;99.90
7117;DHT22;3600;48.568;7.870;2024-03-17T14:29:58;14.40;99.90
7117;DHT22;3600;48.568;7.870;2024-03-17T14:32:24;14.50;99.90
7117;DHT22;3600;48.568;7.870;2024-03-17T14:34:50;14.70;99.90
7117;DHT22;3600;48.568;7.870;2024-03-17T14:37:16;14.60;99.90
7117;DHT22;3600;48.568;7.870;2024-03-17T14:39:42;14.40;99.90
7117;DHT22;3600;48.568;7.870;2024-03-17T14:42:08;14.10;99.90
7117;DHT22;3600;48.568;7.870;2024-03-17T14:44:34;14.00;99.90
7117;DHT22;3600;48.568;7.870;2024-03-17T14:47:03;13.80;99.90
7117;DHT22;3600;48.568;7.870;2024-03-17T14:49:33;14.20;99.90
7117;DHT22;3600;48.568;7.870;2024-03-17T14:51:59;14.30;99.90
7117;DHT22;3600;48.568;7.870;2024-03-17T14:54:26;14.40;99.90
7117;DHT22;3600;48.568;7.870;2024-03-17T14:56:52;14.50;99.90
7117;DHT22;3600;48.568;7.870;2024-03-17T14:59:21;14.50;99.90
7117;DHT22;3600;48.568;7.870;2024-03-17T15:01:48;14.50;99.90
7117;DHT22;3600;48.568;7.870;2024-03-17T15:04:14;14.40;99.90
7117;DHT22;3600;48.568;7.870;2024-03-17T15:06:41;14.50;99.90
7117;DHT22;3600;48.568;7.870;2024-03-17T15:09:09;14.40;99.90
7117;DHT22;3600;48.568;7.870;2024-03-17T15:11:38;14.40;99.90
7117;DHT22;3600;48.568;7.870;2024-03-17T15:14:04;14.40;99.90
7117;DHT22;3600;48.568;7.870;2024-03-17T15:16:39;14.40;99.90
7117;DHT22;3600;48.568;7.870;2024-03-17T15:19:08;14.40;99.90
7117;DHT22;3600;48.568;7.870;2024-03-17T15:35:56;14.20;99.90
7117;DHT22;3600;48.568;7.870;2024-03-17T15:38:22;14.20;99.90
7117;DHT22;3600;48.568;7.870;2024-03-17T15:40:50;14.10;99.90
7117;DHT22;3600;48.568;7.870;2024-03-17T15:43:16;14.10;99.90
7117;DHT22;3600;48.568;7.870;2024-03-17T15:45:43;14.10;99.90
7117;DHT22;3600;48.568;7.870;2024-03-17T15:48:09;14.00;99.90
7117;DHT22;3600;48.568;7.870;2024-03-17T15:50:35;14.00;99.90
7117;DHT22;3600;48.568;7.870;2024-03-17T15:53:05;13.90;99.90
7117;DHT22;3600;48.568;7.870;2024-03-17T15:55:35;13.90;99.90
7117;DHT22;3600;48.568;7.870;2024-03-17T15:58:02;13.90;99.90
7117;DHT22;3600;48.568;7.870;2024-03-17T16:00:28;13.90;99.90
7117;DHT22;3600;48.568;7.870;2024-03-17T16:02:55;13.90;99.90
7117;DHT22;3600;48.568;7.870;2024-03-17T16:05:22;13.80;99.90
7117;DHT22;3600;48.568;7.870;2024-03-17T16:07:49;13.80;99.90
7117;DHT22;3600;48.568;7.870;2024-03-17T16:10:19;13.80;99.90
7117;DHT22;3600;48.568;7.870;2024-03-17T16:12:49;13.70;99.90
7117;DHT22;3600;48.568;7.870;2024-03-17T16:15:16;13.50;99.90
7117;DHT22;3600;48.568;7.870;2024-03-17T16:17:42;13.60;99.90
7117;DHT22;3600;48.568;7.870;2024-03-17T16:20:09;13.70;99.90
7117;DHT22;3600;48.568;7.870;2024-03-17T16:22:45;13.70;99.90
7117;DHT22;3600;48.568;7.870;2024-03-17T16:25:16;13.70;99.90
7117;DHT22;3600;48.568;7.870;2024-03-17T16:27:42;13.70;99.90
7117;DHT22;3600;48.568;7.870;2024-03-17T16:30:08;13.60;99.90
7117;DHT22;3600;48.568;7.870;2024-03-17T16:32:38;13.60;99.90
7117;DHT22;3600;48.568;7.870;2024-03-17T16:35:04;13.60;99.90
7117;DHT22;3600;48.568;7.870;2024-03-17T16:37:30;13.50;99.90
7117;DHT22;3600;48.568;7.870;2024-03-17T16:39:57;13.50;99.90
7117;DHT22;3600;48.568;7.870;2024-03-17T16:42:23;13.50;99.90
7117;DHT22;3600;48.568;7.870;2024-03-17T16:44:59;13.50;99.90
7117;DHT22;3600;48.568;7.870;2024-03-17T16:47:31;13.40;99.90
7117;DHT22;3600;48.568;7.870;2024-03-17T16:49:58;13.40;99.90
7117;DHT22;3600;48.568;7.870;2024-03-17T16:52:27;13.40;99.90
7117;DHT22;3600;48.568;7.870;2024-03-17T16:54:54;13.40;99.90
7117;DHT22;3600;48.568;7.870;2024-03-17T16:57:20;13.40;99.90
7117;DHT22;3600;48.568;7.870;2024-03-17T16:59:46;13.30;99.90
7117;DHT22;3600;48.568;7.870;2024-03-17T17:02:17;13.30;99.90
7117;DHT22;3600;48.568;7.870;2024-03-17T17:04:44;13.30;99.90